sensor_id;sensor_type;location;lat;lon;timestamp;P1;durP1;ratioP1;P2;durP2;ratioP2
59766;SDS011;46248;58.364;25.582;2023-06-26T00:00:45;3.00;;;2.72;;
59766;SDS011;46248;58.364;25.582;2023-06-26T00:04:08;3.95;;;3.55;;
59766;SDS011;46248;58.364;25.582;2023-06-26T00:07:35;3.35;;;2.83;;
59766;SDS011;46248;58.364;25.582;2023-06-26T00:10:58;3.42;;;2.97;;
59766;SDS011;46248;58.364;25.582;2023-06-26T00:14:20;3.83;;;3.40;;
59766;SDS011;46248;58.364;25.582;2023-06-26T00:17:42;3.65;;;3.35;;
59766;SDS011;46248;58.364;25.582;2023-06-26T00:21:05;5.00;;;3.25;;
59766;SDS011;46248;58.364;25.582;2023-06-26T00:24:27;4.25;;;3.35;;
59766;SDS011;46248;58.364;25.582;2023-06-26T00:27:50;4.05;;;3.60;;
59766;SDS011;46248;58.364;25.582;2023-06-26T00:31:12;4.05;;;3.47;;
59766;SDS011;46248;58.364;25.582;2023-06-26T00:34:34;3.50;;;3.20;;
59766;SDS011;46248;58.364;25.582;2023-06-26T00:37:56;4.00;;;3.60;;
59766;SDS011;46248;58.364;25.582;2023-06-26T00:41:18;4.93;;;3.45;;
59766;SDS011;46248;58.364;25.582;2023-06-26T00:44:41;4.05;;;3.65;;
59766;SDS011;46248;58.364;25.582;2023-06-26T00:48:04;4.65;;;3.60;;
59766;SDS011;46248;58.364;25.582;2023-06-26T00:51:27;4.85;;;3.60;;
59766;SDS011;46248;58.364;25.582;2023-06-26T00:54:50;4.68;;;3.85;;
59766;SDS011;46248;58.364;25.582;2023-06-26T00:58:12;3.67;;;3.38;;
59766;SDS011;46248;58.364;25.582;2023-06-26T01:01:36;4.07;;;3.47;;
59766;SDS011;46248;58.364;25.582;2023-06-26T01:04:58;3.65;;;3.33;;
59766;SDS011;46248;58.364;25.582;2023-06-26T01:08:21;5.78;;;4.00;;
59766;SDS011;46248;58.364;25.582;2023-06-26T01:11:44;3.85;;;3.33;;
59766;SDS011;46248;58.364;25.582;2023-06-26T01:15:06;4.13;;;3.72;;
59766;SDS011;46248;58.364;25.582;2023-06-26T01:18:30;5.00;;;3.33;;
59766;SDS011;46248;58.364;25.582;2023-06-26T01:21:55;5.32;;;3.63;;
59766;SDS011;46248;58.364;25.582;2023-06-26T01:25:21;4.55;;;3.58;;
59766;SDS011;46248;58.364;25.582;2023-06-26T01:29:00;4.13;;;3.60;;
59766;SDS011;46248;58.364;25.582;2023-06-26T01:32:25;4.45;;;3.95;;
59766;SDS011;46248;58.364;25.582;2023-06-26T01:35:48;4.78;;;4.10;;
59766;SDS011;46248;58.364;25.582;2023-06-26T01:39:10;4.50;;;3.50;;
59766;SDS011;46248;58.364;25.582;2023-06-26T01:42:32;4.75;;;3.72;;
59766;SDS011;46248;58.364;25.582;2023-06-26T01:45:56;4.20;;;3.50;;
59766;SDS011;46248;58.364;25.582;2023-06-26T01:49:24;4.75;;;3.40;;
59766;SDS011;46248;58.364;25.582;2023-06-26T01:52:58;4.97;;;3.30;;
59766;SDS011;46248;58.364;25.582;2023-06-26T01:56:26;4.15;;;3.35;;
59766;SDS011;46248;58.364;25.582;2023-06-26T01:59:50;3.72;;;3.30;;
59766;SDS011;46248;58.364;25.582;2023-06-26T02:03:15;5.60;;;3.47;;
59766;SDS011;46248;58.364;25.582;2023-06-26T02:06:37;4.68;;;3.70;;
59766;SDS011;46248;58.364;25.582;2023-06-26T02:09:58;4.63;;;3.72;;
59766;SDS011;46248;58.364;25.582;2023-06-26T02:13:20;4.05;;;3.65;;
59766;SDS011;46248;58.364;25.582;2023-06-26T02:16:42;5.28;;;4.00;;
59766;SDS011;46248;58.364;25.582;2023-06-26T02:20:06;4.18;;;3.78;;
59766;SDS011;46248;58.364;25.582;2023-06-26T02:23:30;5.43;;;4.50;;
59766;SDS011;46248;58.364;25.582;2023-06-26T02:26:52;4.18;;;3.70;;
59766;SDS011;46248;58.364;25.582;2023-06-26T02:30:13;4.00;;;3.60;;
59766;SDS011;46248;58.364;25.582;2023-06-26T02:33:35;4.72;;;4.10;;
59766;SDS011;46248;58.364;25.582;2023-06-26T02:36:59;5.68;;;4.05;;
59766;SDS011;46248;58.364;25.582;2023-06-26T02:40:20;5.25;;;3.83;;
59766;SDS011;46248;58.364;25.582;2023-06-26T02:43:42;4.97;;;4.05;;
59766;SDS011;46248;58.364;25.582;2023-06-26T02:47:05;6.00;;;4.60;;
59766;SDS011;46248;58.364;25.582;2023-06-26T02:50:27;5.28;;;4.20;;
59766;SDS011;46248;58.364;25.582;2023-06-26T02:53:50;4.03;;;3.38;;
59766;SDS011;46248;58.364;25.582;2023-06-26T02:57:12;4.32;;;3.88;;
59766;SDS011;46248;58.364;25.582;2023-06-26T03:00:35;4.00;;;3.58;;
59766;SDS011;46248;58.364;25.582;2023-06-26T03:04:02;4.55;;;4.13;;
59766;SDS011;46248;58.364;25.582;2023-06-26T03:07:24;4.68;;;3.20;;
59766;SDS011;46248;58.364;25.582;2023-06-26T03:10:48;3.75;;;3.25;;
59766;SDS011;46248;58.364;25.582;2023-06-26T03:14:10;3.67;;;3.30;;
59766;SDS011;46248;58.364;25.582;2023-06-26T03:17:32;3.55;;;3.25;;
59766;SDS011;46248;58.364;25.582;2023-06-26T03:20:54;3.47;;;3.17;;
59766;SDS011;46248;58.364;25.582;2023-06-26T03:24:17;3.30;;;3.00;;
59766;SDS011;46248;58.364;25.582;2023-06-26T03:27:40;3.47;;;3.05;;
59766;SDS011;46248;58.364;25.582;2023-06-26T03:31:02;4.10;;;3.08;;
59766;SDS011;46248;58.364;25.582;2023-06-26T03:34:24;3.28;;;2.70;;
59766;SDS011;46248;58.364;25.582;2023-06-26T03:37:46;3.70;;;3.40;;
59766;SDS011;46248;58.364;25.582;2023-06-26T03:41:07;3.72;;;3.42;;
59766;SDS011;46248;58.364;25.582;2023-06-26T03:44:31;4.22;;;3.10;;
59766;SDS011;46248;58.364;25.582;2023-06-26T03:47:52;3.80;;;3.40;;
59766;SDS011;46248;58.364;25.582;2023-06-26T03:51:15;2.88;;;2.67;;
59766;SDS011;46248;58.364;25.582;2023-06-26T03:54:37;3.55;;;3.13;;
59766;SDS011;46248;58.364;25.582;2023-06-26T03:57:59;3.38;;;3.08;;
59766;SDS011;46248;58.364;25.582;2023-06-26T04:01:22;4.68;;;3.53;;
59766;SDS011;46248;58.364;25.582;2023-06-26T04:04:44;3.78;;;3.28;;
59766;SDS011;46248;58.364;25.582;2023-06-26T04:08:06;3.58;;;3.28;;
59766;SDS011;46248;58.364;25.582;2023-06-26T04:11:28;6.15;;;3.85;;
59766;SDS011;46248;58.364;25.582;2023-06-26T04:14:50;3.75;;;3.45;;
59766;SDS011;46248;58.364;25.582;2023-06-26T04:18:14;3.80;;;2.60;;
59766;SDS011;46248;58.364;25.582;2023-06-26T04:21:36;3.75;;;2.83;;
59766;SDS011;46248;58.364;25.582;2023-06-26T04:25:00;4.93;;;3.75;;
59766;SDS011;46248;58.364;25.582;2023-06-26T04:28:24;2.80;;;2.60;;
59766;SDS011;46248;58.364;25.582;2023-06-26T04:31:46;3.60;;;3.25;;
59766;SDS011;46248;58.364;25.582;2023-06-26T04:35:10;3.17;;;2.88;;
59766;SDS011;46248;58.364;25.582;2023-06-26T04:38:32;3.25;;;2.85;;
59766;SDS011;46248;58.364;25.582;2023-06-26T04:41:55;3.00;;;2.60;;
59766;SDS011;46248;58.364;25.582;2023-06-26T04:45:17;2.70;;;2.50;;
59766;SDS011;46248;58.364;25.582;2023-06-26T04:48:39;2.35;;;2.15;;
59766;SDS011;46248;58.364;25.582;2023-06-26T04:52:02;2.08;;;1.98;;
59766;SDS011;46248;58.364;25.582;2023-06-26T04:55:24;2.15;;;1.98;;
59766;SDS011;46248;58.364;25.582;2023-06-26T04:58:46;3.25;;;2.03;;
59766;SDS011;46248;58.364;25.582;2023-06-26T05:02:08;3.50;;;2.38;;
59766;SDS011;46248;58.364;25.582;2023-06-26T05:05:30;2.67;;;2.10;;
59766;SDS011;46248;58.364;25.582;2023-06-26T05:08:53;2.08;;;1.98;;
59766;SDS011;46248;58.364;25.582;2023-06-26T05:12:15;2.63;;;2.40;;
59766;SDS011;46248;58.364;25.582;2023-06-26T05:15:37;2.97;;;2.10;;
59766;SDS011;46248;58.364;25.582;2023-06-26T05:18:59;3.28;;;1.67;;
59766;SDS011;46248;58.364;25.582;2023-06-26T05:22:21;5.90;;;2.00;;
59766;SDS011;46248;58.364;25.582;2023-06-26T05:25:45;2.95;;;1.98;;
59766;SDS011;46248;58.364;25.582;2023-06-26T05:29:07;5.63;;;2.15;;
59766;SDS011;46248;58.364;25.582;2023-06-26T05:32:29;2.55;;;2.22;;
59766;SDS011;46248;58.364;25.582;2023-06-26T05:35:54;2.33;;;1.90;;
59766;SDS011;46248;58.364;25.582;2023-06-26T05:39:17;2.58;;;2.38;;
59766;SDS011;46248;58.364;25.582;2023-06-26T05:42:41;3.20;;;2.10;;
59766;SDS011;46248;58.364;25.582;2023-06-26T05:46:03;2.72;;;2.30;;
59766;SDS011;46248;58.364;25.582;2023-06-26T05:49:25;2.38;;;2.17;;
59766;SDS011;46248;58.364;25.582;2023-06-26T05:52:47;2.15;;;1.92;;
59766;SDS011;46248;58.364;25.582;2023-06-26T05:56:10;2.63;;;2.25;;
59766;SDS011;46248;58.364;25.582;2023-06-26T05:59:34;2.10;;;2.00;;
59766;SDS011;46248;58.364;25.582;2023-06-26T06:02:58;2.70;;;2.17;;
59766;SDS011;46248;58.364;25.582;2023-06-26T06:06:20;3.58;;;1.90;;
59766;SDS011;46248;58.364;25.582;2023-06-26T06:09:42;2.75;;;2.05;;
59766;SDS011;46248;58.364;25.582;2023-06-26T06:13:04;2.92;;;2.22;;
59766;SDS011;46248;58.364;25.582;2023-06-26T06:16:27;2.80;;;2.55;;
59766;SDS011;46248;58.364;25.582;2023-06-26T06:19:49;2.65;;;2.42;;
59766;SDS011;46248;58.364;25.582;2023-06-26T06:23:11;3.05;;;2.50;;
59766;SDS011;46248;58.364;25.582;2023-06-26T06:26:33;2.70;;;2.38;;
59766;SDS011;46248;58.364;25.582;2023-06-26T06:29:55;3.22;;;3.00;;
59766;SDS011;46248;58.364;25.582;2023-06-26T06:33:18;2.75;;;2.55;;
59766;SDS011;46248;58.364;25.582;2023-06-26T06:36:40;2.95;;;2.65;;
59766;SDS011;46248;58.364;25.582;2023-06-26T06:40:01;2.95;;;2.63;;
59766;SDS011;46248;58.364;25.582;2023-06-26T06:43:24;3.97;;;2.95;;
59766;SDS011;46248;58.364;25.582;2023-06-26T06:46:46;4.88;;;3.28;;
59766;SDS011;46248;58.364;25.582;2023-06-26T06:50:09;2.83;;;2.63;;
59766;SDS011;46248;58.364;25.582;2023-06-26T06:53:31;2.95;;;2.67;;
59766;SDS011;46248;58.364;25.582;2023-06-26T06:56:53;3.60;;;3.30;;
59766;SDS011;46248;58.364;25.582;2023-06-26T07:00:15;3.42;;;2.83;;
59766;SDS011;46248;58.364;25.582;2023-06-26T07:03:37;3.85;;;3.53;;
59766;SDS011;46248;58.364;25.582;2023-06-26T07:07:01;4.25;;;3.60;;
59766;SDS011;46248;58.364;25.582;2023-06-26T07:10:23;3.60;;;3.20;;
59766;SDS011;46248;58.364;25.582;2023-06-26T07:13:45;4.65;;;4.05;;
59766;SDS011;46248;58.364;25.582;2023-06-26T07:17:07;3.40;;;3.10;;
59766;SDS011;46248;58.364;25.582;2023-06-26T07:20:29;5.70;;;3.92;;
59766;SDS011;46248;58.364;25.582;2023-06-26T07:23:53;4.22;;;3.58;;
59766;SDS011;46248;58.364;25.582;2023-06-26T07:27:15;5.13;;;3.97;;
59766;SDS011;46248;58.364;25.582;2023-06-26T07:30:38;5.30;;;4.28;;
59766;SDS011;46248;58.364;25.582;2023-06-26T07:34:00;4.18;;;3.78;;
59766;SDS011;46248;58.364;25.582;2023-06-26T07:37:22;4.47;;;4.07;;
59766;SDS011;46248;58.364;25.582;2023-06-26T07:40:45;4.72;;;4.32;;
59766;SDS011;46248;58.364;25.582;2023-06-26T07:44:07;4.35;;;3.60;;
59766;SDS011;46248;58.364;25.582;2023-06-26T07:47:28;7.85;;;4.20;;
59766;SDS011;46248;58.364;25.582;2023-06-26T07:50:50;3.95;;;3.58;;
59766;SDS011;46248;58.364;25.582;2023-06-26T07:54:15;5.80;;;5.22;;
59766;SDS011;46248;58.364;25.582;2023-06-26T07:57:38;6.22;;;5.60;;
59766;SDS011;46248;58.364;25.582;2023-06-26T08:01:00;5.88;;;5.15;;
59766;SDS011;46248;58.364;25.582;2023-06-26T08:04:22;7.40;;;5.47;;
59766;SDS011;46248;58.364;25.582;2023-06-26T08:07:46;5.78;;;5.18;;
59766;SDS011;46248;58.364;25.582;2023-06-26T08:11:08;4.20;;;3.67;;
59766;SDS011;46248;58.364;25.582;2023-06-26T08:14:31;4.88;;;4.43;;
59766;SDS011;46248;58.364;25.582;2023-06-26T08:17:53;4.63;;;4.22;;
59766;SDS011;46248;58.364;25.582;2023-06-26T08:21:15;3.97;;;3.58;;
59766;SDS011;46248;58.364;25.582;2023-06-26T08:24:37;5.65;;;4.40;;
59766;SDS011;46248;58.364;25.582;2023-06-26T08:27:59;4.90;;;3.95;;
59766;SDS011;46248;58.364;25.582;2023-06-26T08:31:23;4.20;;;3.80;;
59766;SDS011;46248;58.364;25.582;2023-06-26T08:34:45;4.28;;;3.88;;
59766;SDS011;46248;58.364;25.582;2023-06-26T08:38:08;4.10;;;3.80;;
59766;SDS011;46248;58.364;25.582;2023-06-26T08:41:30;4.43;;;3.53;;
59766;SDS011;46248;58.364;25.582;2023-06-26T08:44:52;5.68;;;3.75;;
59766;SDS011;46248;58.364;25.582;2023-06-26T08:48:23;3.15;;;2.85;;
59766;SDS011;46248;58.364;25.582;2023-06-26T08:51:48;4.78;;;3.83;;
59766;SDS011;46248;58.364;25.582;2023-06-26T08:55:13;4.35;;;3.95;;
59766;SDS011;46248;58.364;25.582;2023-06-26T08:58:37;3.17;;;2.88;;
59766;SDS011;46248;58.364;25.582;2023-06-26T09:02:03;4.65;;;3.83;;
59766;SDS011;46248;58.364;25.582;2023-06-26T09:05:27;4.57;;;3.45;;
59766;SDS011;46248;58.364;25.582;2023-06-26T09:08:49;5.38;;;4.25;;
59766;SDS011;46248;58.364;25.582;2023-06-26T09:12:11;4.63;;;4.22;;
59766;SDS011;46248;58.364;25.582;2023-06-26T09:15:38;3.75;;;3.45;;
59766;SDS011;46248;58.364;25.582;2023-06-26T09:19:00;4.28;;;3.97;;
59766;SDS011;46248;58.364;25.582;2023-06-26T09:22:24;6.10;;;3.85;;
59766;SDS011;46248;58.364;25.582;2023-06-26T09:25:46;4.97;;;4.50;;
59766;SDS011;46248;58.364;25.582;2023-06-26T09:29:09;4.47;;;4.07;;
59766;SDS011;46248;58.364;25.582;2023-06-26T09:32:31;4.97;;;4.10;;
59766;SDS011;46248;58.364;25.582;2023-06-26T09:35:56;5.70;;;3.65;;
59766;SDS011;46248;58.364;25.582;2023-06-26T09:39:20;5.47;;;3.88;;
59766;SDS011;46248;58.364;25.582;2023-06-26T09:42:41;4.90;;;3.40;;
59766;SDS011;46248;58.364;25.582;2023-06-26T09:46:03;4.65;;;3.58;;
59766;SDS011;46248;58.364;25.582;2023-06-26T09:49:25;3.60;;;3.20;;
59766;SDS011;46248;58.364;25.582;2023-06-26T09:52:47;3.38;;;3.08;;
59766;SDS011;46248;58.364;25.582;2023-06-26T09:56:15;4.70;;;3.40;;
59766;SDS011;46248;58.364;25.582;2023-06-26T09:59:38;4.63;;;4.22;;
59766;SDS011;46248;58.364;25.582;2023-06-26T10:03:01;3.95;;;3.65;;
59766;SDS011;46248;58.364;25.582;2023-06-26T10:06:26;5.82;;;3.90;;
59766;SDS011;46248;58.364;25.582;2023-06-26T10:09:49;4.40;;;4.00;;
59766;SDS011;46248;58.364;25.582;2023-06-26T10:13:15;4.50;;;3.53;;
59766;SDS011;46248;58.364;25.582;2023-06-26T10:16:41;3.17;;;2.67;;
59766;SDS011;46248;58.364;25.582;2023-06-26T10:20:06;3.35;;;3.05;;
59766;SDS011;46248;58.364;25.582;2023-06-26T10:23:29;3.28;;;2.97;;
59766;SDS011;46248;58.364;25.582;2023-06-26T10:26:54;2.60;;;2.40;;
59766;SDS011;46248;58.364;25.582;2023-06-26T10:33:48;2.55;;;2.35;;
59766;SDS011;46248;58.364;25.582;2023-06-26T10:37:11;3.63;;;2.60;;
59766;SDS011;46248;58.364;25.582;2023-06-26T10:40:40;3.40;;;2.83;;
59766;SDS011;46248;58.364;25.582;2023-06-26T10:44:07;2.58;;;2.38;;
59766;SDS011;46248;58.364;25.582;2023-06-26T10:47:32;4.35;;;2.40;;
59766;SDS011;46248;58.364;25.582;2023-06-26T10:50:56;3.65;;;2.60;;
59766;SDS011;46248;58.364;25.582;2023-06-26T10:54:18;3.20;;;2.72;;
59766;SDS011;46248;58.364;25.582;2023-06-26T10:57:44;3.70;;;3.22;;
59766;SDS011;46248;58.364;25.582;2023-06-26T11:01:22;5.70;;;3.42;;
59766;SDS011;46248;58.364;25.582;2023-06-26T11:04:47;4.20;;;3.17;;
59766;SDS011;46248;58.364;25.582;2023-06-26T11:08:12;5.77;;;2.73;;
59766;SDS011;46248;58.364;25.582;2023-06-26T11:11:55;6.80;;;2.97;;
59766;SDS011;46248;58.364;25.582;2023-06-26T11:15:19;3.75;;;3.42;;
59766;SDS011;46248;58.364;25.582;2023-06-26T11:18:42;3.85;;;3.30;;
59766;SDS011;46248;58.364;25.582;2023-06-26T11:22:08;4.18;;;3.22;;
59766;SDS011;46248;58.364;25.582;2023-06-26T11:25:30;3.03;;;2.80;;
59766;SDS011;46248;58.364;25.582;2023-06-26T11:28:56;3.92;;;3.20;;
59766;SDS011;46248;58.364;25.582;2023-06-26T11:32:18;5.70;;;3.08;;
59766;SDS011;46248;58.364;25.582;2023-06-26T11:35:40;2.92;;;1.75;;
59766;SDS011;46248;58.364;25.582;2023-06-26T11:39:04;2.58;;;1.50;;
59766;SDS011;46248;58.364;25.582;2023-06-26T11:42:27;2.75;;;1.40;;
59766;SDS011;46248;58.364;25.582;2023-06-26T11:45:50;4.28;;;1.45;;
59766;SDS011;46248;58.364;25.582;2023-06-26T11:49:12;1.45;;;1.30;;
59766;SDS011;46248;58.364;25.582;2023-06-26T11:52:40;3.90;;;1.60;;
59766;SDS011;46248;58.364;25.582;2023-06-26T11:56:08;4.78;;;1.95;;
59766;SDS011;46248;58.364;25.582;2023-06-26T11:59:34;1.53;;;1.43;;
59766;SDS011;46248;58.364;25.582;2023-06-26T12:02:57;3.35;;;1.88;;
59766;SDS011;46248;58.364;25.582;2023-06-26T12:06:18;3.17;;;1.90;;
59766;SDS011;46248;58.364;25.582;2023-06-26T12:09:41;1.67;;;1.58;;
59766;SDS011;46248;58.364;25.582;2023-06-26T12:13:05;3.03;;;1.90;;
59766;SDS011;46248;58.364;25.582;2023-06-26T12:16:29;3.65;;;2.03;;
59766;SDS011;46248;58.364;25.582;2023-06-26T12:19:51;2.78;;;1.80;;
59766;SDS011;46248;58.364;25.582;2023-06-26T12:23:13;2.80;;;1.52;;
59766;SDS011;46248;58.364;25.582;2023-06-26T12:26:35;2.47;;;1.77;;
59766;SDS011;46248;58.364;25.582;2023-06-26T12:29:59;4.07;;;2.20;;
59766;SDS011;46248;58.364;25.582;2023-06-26T12:33:25;2.90;;;1.80;;
59766;SDS011;46248;58.364;25.582;2023-06-26T12:36:48;3.30;;;2.42;;
59766;SDS011;46248;58.364;25.582;2023-06-26T12:40:17;2.97;;;1.80;;
59766;SDS011;46248;58.364;25.582;2023-06-26T12:43:43;2.08;;;1.88;;
59766;SDS011;46248;58.364;25.582;2023-06-26T12:47:06;3.25;;;1.90;;
59766;SDS011;46248;58.364;25.582;2023-06-26T12:50:29;2.67;;;2.40;;
59766;SDS011;46248;58.364;25.582;2023-06-26T12:53:59;1.83;;;1.65;;
59766;SDS011;46248;58.364;25.582;2023-06-26T12:57:21;2.90;;;2.35;;
59766;SDS011;46248;58.364;25.582;2023-06-26T13:00:43;2.90;;;2.03;;
59766;SDS011;46248;58.364;25.582;2023-06-26T13:04:06;1.77;;;1.45;;
59766;SDS011;46248;58.364;25.582;2023-06-26T13:07:29;2.03;;;1.40;;
59766;SDS011;46248;58.364;25.582;2023-06-26T13:10:51;2.05;;;1.58;;
59766;SDS011;46248;58.364;25.582;2023-06-26T13:14:12;2.65;;;1.50;;
59766;SDS011;46248;58.364;25.582;2023-06-26T13:17:35;1.38;;;1.27;;
59766;SDS011;46248;58.364;25.582;2023-06-26T13:20:58;1.92;;;1.40;;
59766;SDS011;46248;58.364;25.582;2023-06-26T13:24:20;1.30;;;1.20;;
59766;SDS011;46248;58.364;25.582;2023-06-26T13:27:43;2.78;;;1.10;;
59766;SDS011;46248;58.364;25.582;2023-06-26T13:31:05;1.65;;;0.98;;
59766;SDS011;46248;58.364;25.582;2023-06-26T13:34:28;1.25;;;0.80;;
59766;SDS011;46248;58.364;25.582;2023-06-26T13:37:51;1.40;;;0.80;;
59766;SDS011;46248;58.364;25.582;2023-06-26T13:41:13;0.80;;;0.80;;
59766;SDS011;46248;58.364;25.582;2023-06-26T13:44:36;1.98;;;1.15;;
59766;SDS011;46248;58.364;25.582;2023-06-26T13:48:17;1.42;;;1.00;;
59766;SDS011;46248;58.364;25.582;2023-06-26T13:51:40;2.10;;;1.05;;
59766;SDS011;46248;58.364;25.582;2023-06-26T13:55:08;1.10;;;1.00;;
59766;SDS011;46248;58.364;25.582;2023-06-26T13:58:30;0.98;;;0.90;;
59766;SDS011;46248;58.364;25.582;2023-06-26T14:01:53;1.27;;;0.90;;
59766;SDS011;46248;58.364;25.582;2023-06-26T14:05:15;1.23;;;0.90;;
59766;SDS011;46248;58.364;25.582;2023-06-26T14:08:52;1.33;;;0.75;;
59766;SDS011;46248;58.364;25.582;2023-06-26T14:12:16;1.20;;;1.10;;
59766;SDS011;46248;58.364;25.582;2023-06-26T14:15:39;1.70;;;1.08;;
59766;SDS011;46248;58.364;25.582;2023-06-26T14:19:01;1.00;;;0.90;;
59766;SDS011;46248;58.364;25.582;2023-06-26T14:22:22;1.20;;;1.10;;
59766;SDS011;46248;58.364;25.582;2023-06-26T14:25:45;0.93;;;0.90;;
59766;SDS011;46248;58.364;25.582;2023-06-26T14:29:10;0.77;;;0.75;;
59766;SDS011;46248;58.364;25.582;2023-06-26T14:32:33;1.88;;;0.90;;
59766;SDS011;46248;58.364;25.582;2023-06-26T14:35:55;2.03;;;0.90;;
59766;SDS011;46248;58.364;25.582;2023-06-26T14:39:17;1.08;;;0.95;;
59766;SDS011;46248;58.364;25.582;2023-06-26T14:42:39;1.40;;;0.80;;
59766;SDS011;46248;58.364;25.582;2023-06-26T14:46:05;2.25;;;1.15;;
59766;SDS011;46248;58.364;25.582;2023-06-26T14:49:27;1.00;;;1.00;;
59766;SDS011;46248;58.364;25.582;2023-06-26T14:52:49;1.75;;;0.98;;
59766;SDS011;46248;58.364;25.582;2023-06-26T14:56:12;1.50;;;0.90;;
59766;SDS011;46248;58.364;25.582;2023-06-26T14:59:34;0.88;;;0.88;;
59766;SDS011;46248;58.364;25.582;2023-06-26T15:02:57;1.73;;;0.98;;
59766;SDS011;46248;58.364;25.582;2023-06-26T15:06:20;2.88;;;1.38;;
59766;SDS011;46248;58.364;25.582;2023-06-26T15:09:42;1.35;;;1.13;;
59766;SDS011;46248;58.364;25.582;2023-06-26T15:13:04;1.15;;;0.90;;
59766;SDS011;46248;58.364;25.582;2023-06-26T15:16:26;1.17;;;1.00;;
59766;SDS011;46248;58.364;25.582;2023-06-26T15:19:49;1.92;;;1.35;;
59766;SDS011;46248;58.364;25.582;2023-06-26T15:23:11;1.20;;;1.10;;
59766;SDS011;46248;58.364;25.582;2023-06-26T15:26:33;1.95;;;1.52;;
59766;SDS011;46248;58.364;25.582;2023-06-26T15:29:56;1.38;;;1.10;;
59766;SDS011;46248;58.364;25.582;2023-06-26T15:33:18;0.95;;;0.90;;
59766;SDS011;46248;58.364;25.582;2023-06-26T15:36:41;1.45;;;1.15;;
59766;SDS011;46248;58.364;25.582;2023-06-26T15:40:03;2.90;;;1.00;;
59766;SDS011;46248;58.364;25.582;2023-06-26T15:43:26;1.15;;;1.05;;
59766;SDS011;46248;58.364;25.582;2023-06-26T15:46:48;0.98;;;0.90;;
59766;SDS011;46248;58.364;25.582;2023-06-26T15:50:10;1.05;;;0.95;;
59766;SDS011;46248;58.364;25.582;2023-06-26T15:53:36;1.90;;;1.40;;
59766;SDS011;46248;58.364;25.582;2023-06-26T15:56:59;1.92;;;1.73;;
59766;SDS011;46248;58.364;25.582;2023-06-26T16:00:21;1.90;;;1.70;;
59766;SDS011;46248;58.364;25.582;2023-06-26T16:03:43;2.13;;;1.30;;
59766;SDS011;46248;58.364;25.582;2023-06-26T16:07:05;1.20;;;1.10;;
59766;SDS011;46248;58.364;25.582;2023-06-26T16:10:36;1.60;;;1.10;;
59766;SDS011;46248;58.364;25.582;2023-06-26T16:13:58;3.08;;;2.35;;
59766;SDS011;46248;58.364;25.582;2023-06-26T16:17:20;1.65;;;1.50;;
59766;SDS011;46248;58.364;25.582;2023-06-26T16:20:41;1.58;;;1.40;;
59766;SDS011;46248;58.364;25.582;2023-06-26T16:24:03;1.88;;;1.25;;
59766;SDS011;46248;58.364;25.582;2023-06-26T16:27:27;1.50;;;1.40;;
59766;SDS011;46248;58.364;25.582;2023-06-26T16:30:49;1.33;;;1.23;;
59766;SDS011;46248;58.364;25.582;2023-06-26T16:34:11;2.17;;;1.30;;
59766;SDS011;46248;58.364;25.582;2023-06-26T16:37:33;1.50;;;1.40;;
59766;SDS011;46248;58.364;25.582;2023-06-26T16:40:55;2.08;;;1.50;;
59766;SDS011;46248;58.364;25.582;2023-06-26T16:44:19;1.85;;;1.40;;
59766;SDS011;46248;58.364;25.582;2023-06-26T16:47:41;3.38;;;1.48;;
59766;SDS011;46248;58.364;25.582;2023-06-26T16:51:04;1.50;;;1.40;;
59766;SDS011;46248;58.364;25.582;2023-06-26T16:54:27;1.20;;;1.10;;
59766;SDS011;46248;58.364;25.582;2023-06-26T16:57:48;1.27;;;1.17;;
59766;SDS011;46248;58.364;25.582;2023-06-26T17:01:12;1.20;;;1.10;;
59766;SDS011;46248;58.364;25.582;2023-06-26T17:04:34;2.13;;;1.23;;
59766;SDS011;46248;58.364;25.582;2023-06-26T17:07:56;1.15;;;1.05;;
59766;SDS011;46248;58.364;25.582;2023-06-26T17:11:19;1.63;;;1.30;;
59766;SDS011;46248;58.364;25.582;2023-06-26T17:14:46;1.20;;;1.13;;
59766;SDS011;46248;58.364;25.582;2023-06-26T17:18:10;1.10;;;1.10;;
59766;SDS011;46248;58.364;25.582;2023-06-26T17:21:32;1.50;;;1.40;;
59766;SDS011;46248;58.364;25.582;2023-06-26T17:24:55;1.55;;;1.45;;
59766;SDS011;46248;58.364;25.582;2023-06-26T17:28:21;1.30;;;1.20;;
59766;SDS011;46248;58.364;25.582;2023-06-26T17:31:44;1.55;;;1.35;;
59766;SDS011;46248;58.364;25.582;2023-06-26T17:35:09;1.30;;;1.20;;
59766;SDS011;46248;58.364;25.582;2023-06-26T17:38:32;1.63;;;1.30;;
59766;SDS011;46248;58.364;25.582;2023-06-26T17:42:00;1.48;;;1.35;;
59766;SDS011;46248;58.364;25.582;2023-06-26T17:45:26;1.13;;;1.02;;
59766;SDS011;46248;58.364;25.582;2023-06-26T17:48:51;1.50;;;1.40;;
59766;SDS011;46248;58.364;25.582;2023-06-26T17:52:17;1.42;;;1.33;;
59766;SDS011;46248;58.364;25.582;2023-06-26T17:55:40;1.60;;;1.45;;
59766;SDS011;46248;58.364;25.582;2023-06-26T17:59:06;2.05;;;1.40;;
59766;SDS011;46248;58.364;25.582;2023-06-26T18:02:32;1.30;;;1.20;;
59766;SDS011;46248;58.364;25.582;2023-06-26T18:05:58;1.52;;;1.42;;
59766;SDS011;46248;58.364;25.582;2023-06-26T18:09:21;1.55;;;1.35;;
59766;SDS011;46248;58.364;25.582;2023-06-26T18:12:43;2.35;;;1.90;;
59766;SDS011;46248;58.364;25.582;2023-06-26T18:16:10;3.17;;;1.55;;
59766;SDS011;46248;58.364;25.582;2023-06-26T18:19:32;1.80;;;1.70;;
59766;SDS011;46248;58.364;25.582;2023-06-26T18:22:54;1.98;;;1.63;;
59766;SDS011;46248;58.364;25.582;2023-06-26T18:26:19;1.63;;;1.52;;
59766;SDS011;46248;58.364;25.582;2023-06-26T18:29:41;2.03;;;1.83;;
59766;SDS011;46248;58.364;25.582;2023-06-26T18:33:04;1.65;;;1.55;;
59766;SDS011;46248;58.364;25.582;2023-06-26T18:36:26;2.28;;;1.70;;
59766;SDS011;46248;58.364;25.582;2023-06-26T18:39:48;2.72;;;1.85;;
59766;SDS011;46248;58.364;25.582;2023-06-26T18:43:12;2.38;;;1.70;;
59766;SDS011;46248;58.364;25.582;2023-06-26T18:46:34;1.70;;;1.60;;
59766;SDS011;46248;58.364;25.582;2023-06-26T18:49:56;5.05;;;1.80;;
59766;SDS011;46248;58.364;25.582;2023-06-26T18:53:17;2.92;;;1.60;;
59766;SDS011;46248;58.364;25.582;2023-06-26T18:56:39;2.10;;;1.70;;
59766;SDS011;46248;58.364;25.582;2023-06-26T19:00:08;2.03;;;1.20;;
59766;SDS011;46248;58.364;25.582;2023-06-26T19:03:30;1.75;;;1.65;;
59766;SDS011;46248;58.364;25.582;2023-06-26T19:06:52;4.25;;;1.80;;
59766;SDS011;46248;58.364;25.582;2023-06-26T19:10:14;1.52;;;1.42;;
59766;SDS011;46248;58.364;25.582;2023-06-26T19:13:37;1.52;;;1.42;;
59766;SDS011;46248;58.364;25.582;2023-06-26T19:17:01;1.50;;;1.38;;
59766;SDS011;46248;58.364;25.582;2023-06-26T19:20:23;1.52;;;1.42;;
59766;SDS011;46248;58.364;25.582;2023-06-26T19:23:45;3.47;;;1.80;;
59766;SDS011;46248;58.364;25.582;2023-06-26T19:27:07;2.53;;;1.67;;
59766;SDS011;46248;58.364;25.582;2023-06-26T19:30:29;1.48;;;1.38;;
59766;SDS011;46248;58.364;25.582;2023-06-26T19:33:53;2.70;;;1.92;;
59766;SDS011;46248;58.364;25.582;2023-06-26T19:37:15;2.10;;;1.90;;
59766;SDS011;46248;58.364;25.582;2023-06-26T19:40:37;1.65;;;1.55;;
59766;SDS011;46248;58.364;25.582;2023-06-26T19:43:59;2.15;;;1.90;;
59766;SDS011;46248;58.364;25.582;2023-06-26T19:47:21;3.45;;;1.98;;
59766;SDS011;46248;58.364;25.582;2023-06-26T19:50:46;2.92;;;2.03;;
59766;SDS011;46248;58.364;25.582;2023-06-26T19:57:34;2.33;;;1.65;;
59766;SDS011;46248;58.364;25.582;2023-06-26T20:00:55;2.80;;;2.00;;
59766;SDS011;46248;58.364;25.582;2023-06-26T20:04:17;2.28;;;2.08;;
59766;SDS011;46248;58.364;25.582;2023-06-26T20:07:41;2.78;;;1.70;;
59766;SDS011;46248;58.364;25.582;2023-06-26T20:11:03;4.18;;;2.38;;